Time;durP1;ratioP1;P1;durP2;ratioP2;P2;SDS_P1;SDS_P2;PMS_P1;PMS_P2;Temp;Humidity;BMP_temperature;BMP_pressure;BME280_temperature;BME280_humidity;BME280_pressure;Samples;Min_cycle;Max_cycle;Signal;HPM_P1;HPM_P2
2023/06/18 00:00:31;;;;;;;;;;;;;;;16.74;52.95;96289.56;5106558;28;19974;-75
2023/06/18 00:02:57;;;;;;;;;;;;;;;16.72;52.83;96282.94;5106458;28;19962;-76
2023/06/18 00:05:23;;;;;;;;;;;;;;;16.69;53.26;96275.50;5106215;28;19959;-75
2023/06/18 00:07:49;;;;;;;;;;;;;;;16.65;52.72;96275.22;5106269;28;20027;-76
2023/06/18 00:10:15;;;;;;;;;;;;;;;16.62;52.25;96276.56;5106407;28;19964;-76
2023/06/18 00:12:41;;;;;;;;;;;;;;;16.59;52.20;96279.72;5106274;28;20299;-75
2023/06/18 00:15:07;;;;;;;;;;;;;;;16.55;52.47;96291.91;5105675;28;20231;-70
2023/06/18 00:17:32;;;;;;;;;;;;;;;16.52;53.37;96283.66;5104596;28;19944;-74
2023/06/18 00:19:58;;;;;;;;;;;;;;;16.47;53.80;96291.59;5106322;28;19961;-73
2023/06/18 00:22:24;;;;;;;;;;;;;;;16.42;53.39;96285.22;5104999;28;20031;-73
2023/06/18 00:24:50;;;;;;;;;;;;;;;16.39;54.27;96287.59;5105662;28;20229;-73
2023/06/18 00:27:16;;;;;;;;;;;;;;;16.35;53.90;96284.66;5105944;28;19953;-73
2023/06/18 00:29:47;;;;;;;;;;;;;;;16.32;54.15;96282.53;5105627;28;19953;-74
2023/06/18 00:32:14;;;;;;;;;;;;;;;16.28;54.32;96284.09;5105962;28;19959;-74
2023/06/18 00:34:41;;;;;;;;;;;;;;;16.23;54.77;96278.78;5104228;28;20241;-76
2023/06/18 00:37:09;;;;;;;;;;;;;;;16.19;55.14;96275.06;5104570;28;20149;-76
2023/06/18 00:39:35;;;;;;;;;;;;;;;16.16;55.11;96276.38;5105652;28;20142;-75
2023/06/18 00:42:02;;;;;;;;;;;;;;;16.14;55.61;96277.69;5105981;28;20130;-75
2023/06/18 00:44:28;;;;;;;;;;;;;;;16.10;55.17;96268.66;5105064;28;19963;-78
2023/06/18 00:46:56;;;;;;;;;;;;;;;16.05;55.49;96266.81;5104716;28;20023;-75
2023/06/18 00:49:22;;;;;;;;;;;;;;;16.01;55.83;96266.50;5105271;28;19959;-75
2023/06/18 00:51:48;;;;;;;;;;;;;;;15.98;55.33;96264.38;5104495;28;19963;-70
2023/06/18 00:54:15;;;;;;;;;;;;;;;15.97;55.01;96269.94;5105204;28;19958;-74
2023/06/18 00:56:50;;;;;;;;;;;;;;;15.94;55.46;96265.94;5105456;28;19963;-77
2023/06/18 00:59:21;;;;;;;;;;;;;;;15.91;55.67;96271.75;5105358;28;19971;-77
2023/06/18 01:01:48;;;;;;;;;;;;;;;15.87;56.09;96262.72;5105462;28;19957;-75
2023/06/18 01:04:14;;;;;;;;;;;;;;;15.83;55.98;96265.09;5103979;28;20142;-74
2023/06/18 01:06:40;;;;;;;;;;;;;;;15.79;56.92;96255.25;5105269;28;19959;-75
2023/06/18 01:09:07;;;;;;;;;;;;;;;15.77;56.67;96252.09;5105221;28;19954;-77
2023/06/18 01:11:37;;;;;;;;;;;;;;;15.74;57.33;96256.03;5104709;28;19959;-76
2023/06/18 01:14:09;;;;;;;;;;;;;;;15.70;57.17;96251.50;5105426;28;19955;-73
2023/06/18 01:16:46;;;;;;;;;;;;;;;15.68;57.67;96253.59;5105156;28;19951;-73
2023/06/18 01:19:31;;;;;;;;;;;;;;;15.65;57.58;96252.25;5104898;28;19961;-73
2023/06/18 01:22:01;;;;;;;;;;;;;;;15.62;57.98;96252.75;5104908;28;19948;-73
2023/06/18 01:24:30;;;;;;;;;;;;;;;15.60;58.20;96250.38;5105064;28;19962;-73
2023/06/18 01:26:57;;;;;;;;;;;;;;;15.56;58.84;96249.31;5105046;28;19971;-74
2023/06/18 01:29:26;;;;;;;;;;;;;;;15.53;58.52;96241.06;5104947;28;19967;-76
2023/06/18 01:31:52;;;;;;;;;;;;;;;15.51;58.22;96237.88;5103976;28;19956;-71
2023/06/18 01:34:18;;;;;;;;;;;;;;;15.51;58.22;96235.25;5104671;28;20230;-70
2023/06/18 01:36:47;;;;;;;;;;;;;;;15.50;58.31;96237.09;5103840;28;19957;-70
2023/06/18 01:39:19;;;;;;;;;;;;;;;15.48;58.29;96236.56;5103576;28;19988;-70
2023/06/18 01:41:46;;;;;;;;;;;;;;;15.45;59.31;96244.97;5104865;28;19975;-70
2023/06/18 01:44:14;;;;;;;;;;;;;;;15.41;59.05;96249.16;5104752;28;19962;-70
2023/06/18 01:46:41;;;;;;;;;;;;;;;15.37;58.83;96248.91;5103354;28;19955;-73
2023/06/18 01:49:07;;;;;;;;;;;;;;;15.36;58.48;96257.06;5105479;28;20139;-69
2023/06/18 01:51:35;;;;;;;;;;;;;;;15.34;58.45;96259.16;5103385;28;19963;-69
2023/06/18 01:54:02;;;;;;;;;;;;;;;15.32;58.46;96255.97;5104723;28;19963;-69
2023/06/18 01:56:28;;;;;;;;;;;;;;;15.30;58.98;96261.50;5104611;28;19951;-69
2023/06/18 01:58:54;;;;;;;;;;;;;;;15.26;59.91;96257.78;5104981;28;19939;-69
2023/06/18 02:01:21;;;;;;;;;;;;;;;15.21;59.83;96249.81;5102905;28;20254;-71
2023/06/18 02:03:47;;;;;;;;;;;;;;;15.17;60.02;96243.44;5103650;28;19956;-78
2023/06/18 02:06:13;;;;;;;;;;;;;;;15.15;59.64;96248.19;5103549;28;19959;-76
2023/06/18 02:08:39;;;;;;;;;;;;;;;15.12;59.57;96244.22;5103300;28;19960;-71
2023/06/18 02:11:05;;;;;;;;;;;;;;;15.10;59.38;96245.50;5104269;28;20001;-71
2023/06/18 02:13:31;;;;;;;;;;;;;;;15.09;60.74;96259.75;5102949;28;19965;-74
2023/06/18 02:15:56;;;;;;;;;;;;;;;15.07;59.92;96254.72;5104299;28;19966;-71
2023/06/18 02:18:22;;;;;;;;;;;;;;;15.06;60.07;96257.63;5108336;28;19958;-71
2023/06/18 02:20:48;;;;;;;;;;;;;;;15.04;61.02;96257.88;5108450;28;19989;-71
2023/06/18 02:23:14;;;;;;;;;;;;;;;15.01;60.54;96253.06;5107901;28;19962;-73
2023/06/18 02:25:40;;;;;;;;;;;;;;;14.96;60.67;96253.84;5108326;28;19968;-75
2023/06/18 02:28:06;;;;;;;;;;;;;;;14.93;60.37;96253.53;5107794;28;20251;-75
2023/06/18 02:30:33;;;;;;;;;;;;;;;14.90;61.52;96262.75;5108205;28;19960;-75
2023/06/18 02:33:06;;;;;;;;;;;;;;;14.84;61.77;96258.47;5108544;28;19953;-74
2023/06/18 02:35:32;;;;;;;;;;;;;;;14.82;61.34;96256.09;5108186;28;19961;-75
2023/06/18 02:37:58;;;;;;;;;;;;;;;14.79;61.27;96261.84;5107874;28;20119;-75
2023/06/18 02:40:24;;;;;;;;;;;;;;;14.76;62.86;96262.38;5108103;28;20002;-73
2023/06/18 02:42:50;;;;;;;;;;;;;;;14.72;62.41;96265.72;5107915;28;19953;-69
2023/06/18 02:45:17;;;;;;;;;;;;;;;14.68;62.09;96248.78;5108121;28;19955;-75
2023/06/18 02:47:44;;;;;;;;;;;;;;;14.66;62.31;96251.69;5108064;28;19960;-75
2023/06/18 02:50:10;;;;;;;;;;;;;;;14.63;62.75;96251.38;5107922;28;19957;-75
2023/06/18 02:52:36;;;;;;;;;;;;;;;14.60;61.98;96247.41;5107604;28;20150;-74
2023/06/18 02:55:02;;;;;;;;;;;;;;;14.58;62.39;96252.13;5107240;28;19954;-77
2023/06/18 02:57:28;;;;;;;;;;;;;;;14.54;62.98;96257.06;5106205;28;19965;-77
2023/06/18 02:59:54;;;;;;;;;;;;;;;14.53;62.62;96252.03;5107628;28;19966;-72
2023/06/18 03:02:19;;;;;;;;;;;;;;;14.51;63.60;96264.69;5107872;28;19956;-70
2023/06/18 03:04:45;;;;;;;;;;;;;;;14.49;63.98;96257.03;5107463;28;19955;-69
2023/06/18 03:07:11;;;;;;;;;;;;;;;14.47;62.92;96260.94;5106030;28;19955;-72
2023/06/18 03:09:37;;;;;;;;;;;;;;;14.46;63.88;96262.00;5106551;28;19964;-70
2023/06/18 03:12:03;;;;;;;;;;;;;;;14.41;64.24;96265.38;5107466;28;19956;-70
2023/06/18 03:14:29;;;;;;;;;;;;;;;14.39;64.50;96267.47;5107342;28;19949;-72
2023/06/18 03:16:56;;;;;;;;;;;;;;;14.37;64.53;96269.56;5107295;28;19966;-70
2023/06/18 03:19:23;;;;;;;;;;;;;;;14.34;64.77;96267.41;5107193;28;19961;-69
2023/06/18 03:21:48;;;;;;;;;;;;;;;14.32;64.50;96266.84;5107385;28;20326;-68
2023/06/18 03:24:14;;;;;;;;;;;;;;;14.32;65.46;96280.03;5105452;28;19962;-69
2023/06/18 03:26:41;;;;;;;;;;;;;;;14.28;66.69;96281.56;5106232;28;19944;-68
2023/06/18 03:29:07;;;;;;;;;;;;;;;14.26;65.24;96284.47;5106250;28;19956;-69
2023/06/18 03:31:33;;;;;;;;;;;;;;;14.25;65.09;96280.22;5107268;28;19961;-68
2023/06/18 03:34:01;;;;;;;;;;;;;;;14.23;65.78;96279.66;5105490;28;19960;-69
2023/06/18 03:36:28;;;;;;;;;;;;;;;14.22;65.40;96275.44;5106988;28;19957;-70
2023/06/18 03:38:54;;;;;;;;;;;;;;;14.20;66.17;96274.88;5106761;28;19965;-77
2023/06/18 03:41:21;;;;;;;;;;;;;;;14.17;66.83;96276.19;5106584;28;19971;-77
2023/06/18 03:43:47;;;;;;;;;;;;;;;14.16;66.85;96277.22;5106712;28;19958;-77
2023/06/18 03:46:12;;;;;;;;;;;;;;;14.15;65.72;96273.00;5106730;28;20017;-77
2023/06/18 03:48:39;;;;;;;;;;;;;;;14.17;65.72;96273.56;5106715;28;20208;-77
2023/06/18 03:51:05;;;;;;;;;;;;;;;14.19;65.63;96275.91;5106737;28;19951;-77
2023/06/18 03:53:36;;;;;;;;;;;;;;;14.21;66.45;96282.56;5106121;28;19953;-76
2023/06/18 03:56:03;;;;;;;;;;;;;;;14.23;66.61;96279.66;5106678;28;19960;-69
2023/06/18 03:58:29;;;;;;;;;;;;;;;14.24;66.86;96285.72;5106451;28;19950;-68
2023/06/18 04:00:55;;;;;;;;;;;;;;;14.25;65.80;96280.22;5106448;28;19990;-68
2023/06/18 04:03:22;;;;;;;;;;;;;;;14.31;65.81;96286.38;5106579;28;19954;-69
2023/06/18 04:05:48;;;;;;;;;;;;;;;14.32;65.93;96285.31;5106307;28;19954;-68
2023/06/18 04:08:14;;;;;;;;;;;;;;;14.36;65.49;96289.88;5106096;28;19972;-69
2023/06/18 04:10:41;;;;;;;;;;;;;;;14.41;65.89;96284.63;5106151;28;20239;-69
2023/06/18 04:13:06;;;;;;;;;;;;;;;14.46;67.05;96296.31;5087791;28;20245;-69
2023/06/18 04:15:32;;;;;;;;;;;;;;;14.50;67.30;96294.75;5106218;28;19957;-73
2023/06/18 04:17:58;;;;;;;;;;;;;;;14.53;67.67;96294.25;5106164;28;19961;-76
2023/06/18 04:20:24;;;;;;;;;;;;;;;14.57;67.73;96290.94;5106274;28;19957;-76
2023/06/18 04:22:50;;;;;;;;;;;;;;;14.62;67.69;96290.19;5106073;28;19937;-76
2023/06/18 04:25:16;;;;;;;;;;;;;;;14.67;69.08;96292.09;5106062;28;19956;-76
2023/06/18 04:27:42;;;;;;;;;;;;;;;14.72;68.25;96289.47;5106255;28;20110;-76
2023/06/18 04:30:08;;;;;;;;;;;;;;;14.77;67.56;96286.91;5105515;28;19960;-76
2023/06/18 04:32:34;;;;;;;;;;;;;;;14.82;67.29;96290.41;5106067;28;19959;-68
2023/06/18 04:35:00;;;;;;;;;;;;;;;14.89;66.44;96287.56;5105619;28;19960;-76
2023/06/18 04:37:26;;;;;;;;;;;;;;;14.98;66.22;96288.72;5105811;28;19957;-75
2023/06/18 04:39:52;;;;;;;;;;;;;;;15.04;65.79;96286.13;5105341;28;19953;-76
2023/06/18 04:42:18;;;;;;;;;;;;;;;15.10;65.91;96283.28;5104260;28;19966;-76
2023/06/18 04:44:43;;;;;;;;;;;;;;;15.15;65.84;96283.31;5105623;28;19949;-76
2023/06/18 04:47:09;;;;;;;;;;;;;;;15.19;65.20;96278.34;5105627;28;19957;-75
2023/06/18 04:49:35;;;;;;;;;;;;;;;15.21;64.96;96277.03;5105621;28;20124;-77
2023/06/18 04:52:01;;;;;;;;;;;;;;;15.19;64.66;96278.34;5105685;28;20243;-76
2023/06/18 04:54:27;;;;;;;;;;;;;;;15.17;65.17;96270.66;5105116;28;19943;-76
2023/06/18 04:56:53;;;;;;;;;;;;;;;15.13;64.50;96274.84;5105300;28;20002;-76
2023/06/18 04:59:19;;;;;;;;;;;;;;;15.12;64.58;96267.97;5104977;28;19955;-75
2023/06/18 05:01:45;;;;;;;;;;;;;;;15.15;65.14;96262.19;5105013;28;19986;-75
2023/06/18 05:04:11;;;;;;;;;;;;;;;15.19;65.55;96262.50;5105102;28;19961;-76
2023/06/18 05:06:37;;;;;;;;;;;;;;;15.29;64.65;96261.78;5105053;28;19959;-76
2023/06/18 05:09:03;;;;;;;;;;;;;;;15.38;64.87;96263.69;5105246;28;19960;-69
2023/06/18 05:11:29;;;;;;;;;;;;;;;15.50;64.98;96254.81;5103779;28;20246;-76
2023/06/18 05:13:55;;;;;;;;;;;;;;;15.63;64.90;96262.28;5105081;28;19990;-77
2023/06/18 05:16:21;;;;;;;;;;;;;;;15.72;64.75;96265.28;5105062;28;19963;-76
2023/06/18 05:18:47;;;;;;;;;;;;;;;15.81;64.22;96261.91;5105100;28;20001;-78
2023/06/18 05:21:13;;;;;;;;;;;;;;;15.91;62.71;96258.50;5104961;28;19962;-78
2023/06/18 05:23:39;;;;;;;;;;;;;;;16.04;63.15;96254.63;5105225;28;20231;-76
2023/06/18 05:26:05;;;;;;;;;;;;;;;16.23;62.55;96262.91;5105249;28;19957;-69
2023/06/18 05:28:31;;;;;;;;;;;;;;;16.36;62.21;96257.16;5104999;28;19971;-75
2023/06/18 05:30:57;;;;;;;;;;;;;;;16.50;61.86;96244.22;5105097;28;19960;-77
2023/06/18 05:33:23;;;;;;;;;;;;;;;16.71;61.04;96244.28;5104524;28;19962;-76
2023/06/18 05:35:49;;;;;;;;;;;;;;;16.95;60.64;96244.63;5104881;28;19959;-77
2023/06/18 05:38:15;;;;;;;;;;;;;;;17.21;59.92;96242.78;5104602;28;19958;-77
2023/06/18 05:40:40;;;;;;;;;;;;;;;17.46;59.77;96247.28;5104200;28;19973;-77
2023/06/18 05:43:06;;;;;;;;;;;;;;;17.68;58.96;96246.19;5104730;28;19962;-77
2023/06/18 05:45:32;;;;;;;;;;;;;;;17.85;58.72;96242.22;5104759;28;19953;-77
2023/06/18 05:47:58;;;;;;;;;;;;;;;18.02;58.61;96239.25;5104739;28;19971;-78
2023/06/18 05:50:24;;;;;;;;;;;;;;;18.27;58.06;96248.19;5105935;28;20004;-78
2023/06/18 05:52:50;;;;;;;;;;;;;;;18.48;58.30;96251.56;5110091;28;19953;-77
2023/06/18 05:55:16;;;;;;;;;;;;;;;18.58;56.80;96243.53;5111494;28;19973;-78
2023/06/18 05:57:42;;;;;;;;;;;;;;;18.67;56.82;96241.88;5111228;28;19958;-78
2023/06/18 06:00:08;;;;;;;;;;;;;;;18.81;56.60;96247.38;5110768;28;19958;-77
2023/06/18 06:02:34;;;;;;;;;;;;;;;19.00;56.08;96242.25;5111370;28;19950;-78
2023/06/18 06:05:00;;;;;;;;;;;;;;;19.19;55.81;96239.72;5111103;28;20121;-70
2023/06/18 06:07:26;;;;;;;;;;;;;;;19.37;54.84;96240.88;5111305;28;19965;-69
2023/06/18 06:09:52;;;;;;;;;;;;;;;19.47;53.84;96232.81;5109869;28;19956;-69
2023/06/18 06:12:18;;;;;;;;;;;;;;;19.61;53.29;96240.94;5093084;28;19961;-68
2023/06/18 06:14:43;;;;;;;;;;;;;;;19.71;53.65;96231.31;5111396;28;19960;-69
2023/06/18 06:17:09;;;;;;;;;;;;;;;19.84;53.18;96225.31;5111193;28;20234;-69
2023/06/18 06:19:35;;;;;;;;;;;;;;;19.95;53.30;96224.13;5111128;28;19988;-68
2023/06/18 06:22:01;;;;;;;;;;;;;;;20.08;54.13;96228.78;5111192;28;20286;-76
2023/06/18 06:24:27;;;;;;;;;;;;;;;20.24;54.90;96232.06;5110942;28;19949;-72
2023/06/18 06:26:53;;;;;;;;;;;;;;;20.46;53.48;96217.41;5093261;28;20292;-71
2023/06/18 06:29:19;;;;;;;;;;;;;;;20.58;51.74;96209.00;5109491;28;19962;-71
2023/06/18 06:31:44;;;;;;;;;;;;;;;20.65;52.75;96217.44;5111105;28;20213;-72
2023/06/18 06:34:11;;;;;;;;;;;;;;;20.82;51.85;96211.59;5110039;28;19950;-72
2023/06/18 06:36:38;;;;;;;;;;;;;;;21.07;51.82;96207.75;5111350;28;19966;-72
2023/06/18 06:39:04;;;;;;;;;;;;;;;21.31;50.94;96204.19;5110807;28;20139;-71
2023/06/18 06:41:30;;;;;;;;;;;;;;;21.45;48.51;96197.03;5111031;28;19965;-69
2023/06/18 06:43:55;;;;;;;;;;;;;;;21.64;47.82;96200.41;5110986;28;19961;-69
2023/06/18 06:46:21;;;;;;;;;;;;;;;21.85;47.08;96214.19;5110913;28;19958;-69
2023/06/18 06:48:47;;;;;;;;;;;;;;;22.04;46.29;96213.28;5111087;28;19965;-69
2023/06/18 06:51:13;;;;;;;;;;;;;;;22.20;44.57;96227.16;5110916;28;19954;-70
2023/06/18 06:53:39;;;;;;;;;;;;;;;22.35;46.10;96220.75;5110352;28;19939;-70
2023/06/18 06:56:05;;;;;;;;;;;;;;;22.52;45.92;96236.94;5111143;28;20000;-69
2023/06/18 06:58:30;;;;;;;;;;;;;;;22.62;45.05;96231.38;5110703;28;19948;-70
2023/06/18 07:00:56;;;;;;;;;;;;;;;22.72;46.25;96242.94;5109584;28;20010;-70
2023/06/18 07:03:22;;;;;;;;;;;;;;;22.78;46.06;96241.72;5108202;28;19949;-71
2023/06/18 07:05:48;;;;;;;;;;;;;;;22.87;45.87;96240.72;5107276;28;19952;-71
2023/06/18 07:08:14;;;;;;;;;;;;;;;23.02;44.50;96236.16;5106404;28;19955;-72
2023/06/18 07:10:40;;;;;;;;;;;;;;;23.06;43.34;96235.25;5107323;28;20236;-71
2023/06/18 07:13:06;;;;;;;;;;;;;;;23.14;44.32;96238.25;5107514;28;20172;-72
2023/06/18 07:15:32;;;;;;;;;;;;;;;23.21;44.46;96239.44;5107442;28;20145;-72
2023/06/18 07:17:58;;;;;;;;;;;;;;;23.35;44.77;96238.56;5105873;28;19963;-70
2023/06/18 07:20:24;;;;;;;;;;;;;;;23.54;44.49;96236.50;5089212;28;19967;-78
2023/06/18 07:22:49;;;;;;;;;;;;;;;23.66;43.77;96242.06;5107259;28;19984;-77
2023/06/18 07:25:15;;;;;;;;;;;;;;;23.78;43.23;96232.72;5106903;28;19940;-78
2023/06/18 07:27:41;;;;;;;;;;;;;;;23.84;43.51;96237.63;5107206;28;19971;-79
2023/06/18 07:30:07;;;;;;;;;;;;;;;23.98;42.49;96234.03;5107211;28;19957;-78
2023/06/18 07:32:33;;;;;;;;;;;;;;;24.11;41.65;96239.31;5106860;28;20232;-78
2023/06/18 07:34:59;;;;;;;;;;;;;;;24.10;41.54;96239.63;5106995;28;19958;-75
2023/06/18 07:37:25;;;;;;;;;;;;;;;23.94;40.48;96241.13;5089082;28;20252;-75
2023/06/18 07:39:50;;;;;;;;;;;;;;;23.75;41.29;96241.31;5106406;28;20261;-79
2023/06/18 07:42:16;;;;;;;;;;;;;;;23.61;41.37;96242.19;5106661;28;20170;-79
2023/06/18 07:44:42;;;;;;;;;;;;;;;23.58;42.33;96242.00;5106740;28;19963;-79
2023/06/18 07:47:08;;;;;;;;;;;;;;;23.51;41.42;96239.78;5106931;28;20150;-79
2023/06/18 07:49:34;;;;;;;;;;;;;;;23.54;41.97;96241.03;5106877;28;19964;-78
2023/06/18 07:52:01;;;;;;;;;;;;;;;23.62;41.18;96245.66;5105436;28;19956;-78
2023/06/18 07:54:27;;;;;;;;;;;;;;;23.79;39.17;96237.78;5106622;28;19944;-70
2023/06/18 07:56:53;;;;;;;;;;;;;;;23.85;38.53;96241.88;5106664;28;20034;-75
2023/06/18 07:59:18;;;;;;;;;;;;;;;23.90;38.48;96249.00;5106580;28;19962;-75
2023/06/18 08:01:45;;;;;;;;;;;;;;;23.94;35.31;96244.59;5106287;28;19974;-75
2023/06/18 08:04:11;;;;;;;;;;;;;;;24.11;37.00;96249.25;5106189;28;19948;-76
2023/06/18 08:06:37;;;;;;;;;;;;;;;24.31;38.81;96245.97;5106598;28;20281;-75
2023/06/18 08:09:03;;;;;;;;;;;;;;;24.59;37.80;96239.59;5106452;28;19958;-75
2023/06/18 08:11:29;;;;;;;;;;;;;;;24.85;37.61;96242.31;5106162;28;20292;-76
2023/06/18 08:13:55;;;;;;;;;;;;;;;25.08;36.75;96245.66;5105921;28;19998;-70
2023/06/18 08:16:22;;;;;;;;;;;;;;;25.23;34.84;96242.50;5104791;28;19960;-76
2023/06/18 08:18:47;;;;;;;;;;;;;;;25.34;34.78;96245.66;5106399;28;20237;-76
2023/06/18 08:21:13;;;;;;;;;;;;;;;25.51;35.00;96242.13;5106041;28;19971;-76
2023/06/18 08:23:39;;;;;;;;;;;;;;;25.64;32.58;96240.38;5105600;28;20007;-76
2023/06/18 08:26:05;;;;;;;;;;;;;;;25.63;34.40;96247.63;5105864;28;19965;-75
2023/06/18 08:28:31;;;;;;;;;;;;;;;25.72;34.35;96244.94;5106013;28;19981;-76
2023/06/18 08:30:57;;;;;;;;;;;;;;;25.80;32.40;96241.44;5105804;28;19955;-72
2023/06/18 08:33:23;;;;;;;;;;;;;;;25.95;36.14;96231.31;5105539;28;20023;-70
2023/06/18 08:35:49;;;;;;;;;;;;;;;26.02;33.58;96231.59;5106010;28;19968;-70
2023/06/18 08:38:15;;;;;;;;;;;;;;;26.11;34.44;96232.34;5105595;28;19965;-70
2023/06/18 08:40:51;;;;;;;;;;;;;;;26.10;31.89;96226.19;5105542;28;19962;-70
2023/06/18 08:43:21;;;;;;;;;;;;;;;26.24;32.42;96233.22;5104425;28;19957;-69
2023/06/18 08:45:50;;;;;;;;;;;;;;;26.35;32.53;96229.03;5105674;28;20227;-70
2023/06/18 08:48:17;;;;;;;;;;;;;;;26.47;32.23;96231.03;5105651;28;19952;-70
2023/06/18 08:50:43;;;;;;;;;;;;;;;26.56;32.62;96231.00;5105080;28;19940;-72
2023/06/18 08:53:12;;;;;;;;;;;;;;;26.72;33.11;96232.03;5104552;28;19989;-76
2023/06/18 08:55:40;;;;;;;;;;;;;;;26.76;32.34;96222.19;5105136;28;19972;-75
2023/06/18 08:58:09;;;;;;;;;;;;;;;26.71;32.39;96225.06;5105116;28;19954;-76
2023/06/18 09:00:36;;;;;;;;;;;;;;;26.81;32.65;96223.88;5105026;28;19953;-76
2023/06/18 09:03:03;;;;;;;;;;;;;;;26.93;32.07;96213.97;5105480;28;19970;-76
2023/06/18 09:05:29;;;;;;;;;;;;;;;27.07;31.77;96221.78;5105092;28;19950;-76
2023/06/18 09:07:55;;;;;;;;;;;;;;;27.12;31.72;96224.25;5105368;28;20109;-72
2023/06/18 09:10:22;;;;;;;;;;;;;;;27.24;31.82;96226.25;5086832;28;20005;-76
2023/06/18 09:12:48;;;;;;;;;;;;;;;27.43;31.66;96222.28;5104723;28;19963;-75
2023/06/18 09:15:14;;;;;;;;;;;;;;;27.60;31.61;96214.00;5105174;28;19953;-76
2023/06/18 09:17:47;;;;;;;;;;;;;;;27.68;31.59;96223.91;5104212;28;19942;-75
2023/06/18 09:20:17;;;;;;;;;;;;;;;27.84;30.86;96212.47;5105093;28;19959;-75
2023/06/18 09:22:45;;;;;;;;;;;;;;;27.93;30.92;96210.50;5104611;28;19989;-76
2023/06/18 09:25:11;;;;;;;;;;;;;;;28.00;28.06;96207.25;5104323;28;19961;-71
2023/06/18 09:27:40;;;;;;;;;;;;;;;28.00;28.84;96209.94;5105036;28;20141;-75
2023/06/18 09:30:06;;;;;;;;;;;;;;;28.10;30.83;96209.50;5104744;28;19964;-70
2023/06/18 09:32:44;;;;;;;;;;;;;;;28.27;27.18;96200.38;5104420;28;19964;-69
2023/06/18 09:35:11;;;;;;;;;;;;;;;28.44;28.40;96204.75;5103679;28;19966;-70
2023/06/18 09:37:36;;;;;;;;;;;;;;;28.50;27.70;96203.41;5104917;28;20126;-69
2023/06/18 09:40:29;;;;;;;;;;;;;;;28.53;26.09;96210.81;5104858;28;19955;-70
2023/06/18 09:43:00;;;;;;;;;;;;;;;28.60;27.95;96202.94;5100612;28;19973;-70
2023/06/18 09:45:26;;;;;;;;;;;;;;;28.70;28.63;96197.06;5103601;28;19959;-81
2023/06/18 09:47:54;;;;;;;;;;;;;;;28.81;26.62;96194.69;5103794;28;21067;-80
2023/06/18 09:50:24;;;;;;;;;;;;;;;28.90;25.89;96192.63;5104715;28;19977;-82
2023/06/18 09:52:50;;;;;;;;;;;;;;;28.91;26.96;96190.69;5104216;28;19956;-80
2023/06/18 09:55:27;;;;;;;;;;;;;;;28.93;27.47;96191.16;5104512;28;19955;-81
2023/06/18 09:57:53;;;;;;;;;;;;;;;28.95;25.99;96181.56;5104658;28;19975;-81
2023/06/18 10:00:19;;;;;;;;;;;;;;;28.95;27.00;96184.28;5104624;28;20223;-81
2023/06/18 10:02:45;;;;;;;;;;;;;;;29.05;25.25;96185.69;5104038;28;19959;-70
2023/06/18 10:05:11;;;;;;;;;;;;;;;29.10;27.28;96184.69;5087016;28;20002;-76
2023/06/18 10:07:40;;;;;;;;;;;;;;;29.22;27.59;96184.63;5103446;28;19956;-80
2023/06/18 10:10:09;;;;;;;;;;;;;;;29.38;26.35;96181.16;5104167;28;19969;-80
2023/06/18 10:12:36;;;;;;;;;;;;;;;29.50;25.20;96179.22;5104364;28;20221;-81
2023/06/18 10:15:02;;;;;;;;;;;;;;;29.54;26.10;96176.59;5104327;28;19957;-81
2023/06/18 10:17:31;;;;;;;;;;;;;;;29.63;25.97;96177.22;5102984;28;20248;-83
2023/06/18 10:20:04;;;;;;;;;;;;;;;29.70;24.62;96176.63;5104320;28;19961;-81
2023/06/18 10:22:34;;;;;;;;;;;;;;;29.45;24.75;96176.75;5103995;28;19968;-70
2023/06/18 10:25:04;;;;;;;;;;;;;;;29.34;25.14;96173.78;5103050;28;19968;-75
2023/06/18 10:27:30;;;;;;;;;;;;;;;29.33;24.84;96174.88;5103886;28;20126;-76
2023/06/18 10:29:57;;;;;;;;;;;;;;;29.46;26.15;96164.03;5104197;28;19968;-76
2023/06/18 10:32:23;;;;;;;;;;;;;;;29.69;25.54;96170.41;5104309;28;20147;-76
2023/06/18 10:34:54;;;;;;;;;;;;;;;29.89;25.30;96167.81;5104380;28;20146;-76
2023/06/18 10:37:20;;;;;;;;;;;;;;;30.06;23.59;96162.03;5105646;28;19949;-78
2023/06/18 10:39:47;;;;;;;;;;;;;;;30.25;25.19;96155.13;5106614;28;19957;-75
2023/06/18 10:42:14;;;;;;;;;;;;;;;30.49;25.02;96157.63;5107462;28;20258;-71
2023/06/18 10:44:59;;;;;;;;;;;;;;;30.67;24.20;96159.91;5107926;28;20170;-70
2023/06/18 10:47:26;;;;;;;;;;;;;;;30.63;23.77;96153.63;5089648;28;19955;-71
2023/06/18 10:50:01;;;;;;;;;;;;;;;30.60;24.46;96157.06;5107958;28;19966;-71
2023/06/18 10:52:29;;;;;;;;;;;;;;;30.68;23.85;96150.63;5107907;28;19954;-71
2023/06/18 10:54:55;;;;;;;;;;;;;;;30.74;24.51;96150.00;5108063;28;19956;-71
2023/06/18 10:57:26;;;;;;;;;;;;;;;30.88;23.67;96146.81;5107583;28;19975;-72
2023/06/18 10:59:52;;;;;;;;;;;;;;;31.08;23.80;96147.59;5106265;28;20123;-76
2023/06/18 11:02:29;;;;;;;;;;;;;;;31.25;24.03;96134.72;5107674;28;19970;-76
2023/06/18 11:04:55;;;;;;;;;;;;;;;31.51;23.49;96142.94;5107851;28;20125;-75
2023/06/18 11:07:23;;;;;;;;;;;;;;;31.68;21.62;96135.47;5106230;28;19991;-75
2023/06/18 11:09:56;;;;;;;;;;;;;;;31.71;23.38;96130.13;5107590;28;19957;-75
2023/06/18 11:12:23;;;;;;;;;;;;;;;31.68;22.15;96125.41;5107443;28;19969;-74
2023/06/18 11:15:22;;;;;;;;;;;;;;;31.71;21.54;96132.81;5107248;28;19937;-76
2023/06/18 11:17:52;;;;;;;;;;;;;;;31.82;22.68;96134.94;5051560;28;19973;-76
2023/06/18 11:20:18;;;;;;;;;;;;;;;31.87;22.37;96126.47;5107370;28;19958;-78
2023/06/18 11:22:45;;;;;;;;;;;;;;;31.91;23.23;96128.09;5107374;28;19967;-77
2023/06/18 11:25:12;;;;;;;;;;;;;;;31.94;24.17;96127.38;5106042;28;19958;-77
2023/06/18 11:27:42;;;;;;;;;;;;;;;31.94;21.80;96126.56;5105740;28;19957;-77
2023/06/18 11:30:12;;;;;;;;;;;;;;;31.92;22.68;96120.75;5107269;28;20260;-77
2023/06/18 11:32:38;;;;;;;;;;;;;;;32.03;22.06;96123.66;5105750;28;20154;-77
2023/06/18 11:35:05;;;;;;;;;;;;;;;32.05;21.43;96119.41;5106015;28;19946;-76
2023/06/18 11:37:31;;;;;;;;;;;;;;;31.92;20.42;96105.25;5106143;28;20259;-73
2023/06/18 11:39:57;;;;;;;;;;;;;;;31.98;22.15;96103.00;5107055;28;19958;-73
2023/06/18 11:42:25;;;;;;;;;;;;;;;31.96;20.57;96106.09;5088211;28;19974;-72
2023/06/18 11:44:52;;;;;;;;;;;;;;;31.87;20.95;96102.84;5106937;28;19948;-72
2023/06/18 11:47:18;;;;;;;;;;;;;;;31.86;21.56;96090.44;5105263;28;19954;-73
2023/06/18 11:49:45;;;;;;;;;;;;;;;31.83;21.87;96093.88;5087874;28;19954;-72
2023/06/18 11:52:15;;;;;;;;;;;;;;;31.89;21.47;96089.69;5105657;28;20235;-72
2023/06/18 11:54:42;;;;;;;;;;;;;;;32.09;21.83;96093.13;5106744;28;20136;-76
2023/06/18 11:57:15;;;;;;;;;;;;;;;32.23;21.71;96091.75;5106709;28;19961;-71
2023/06/18 11:59:41;;;;;;;;;;;;;;;32.46;20.77;96087.00;5104988;28;19954;-72
2023/06/18 12:02:13;;;;;;;;;;;;;;;32.63;21.56;96079.47;5106706;28;19953;-71
2023/06/18 12:04:40;;;;;;;;;;;;;;;32.82;21.17;96078.50;5106562;28;19956;-71
2023/06/18 12:07:06;;;;;;;;;;;;;;;32.88;19.42;96066.16;5104814;28;19960;-71
2023/06/18 12:09:36;;;;;;;;;;;;;;;32.92;21.58;96075.88;5106124;28;20017;-71
2023/06/18 12:12:07;;;;;;;;;;;;;;;32.95;21.08;96068.97;5106136;28;20142;-75
2023/06/18 12:14:47;;;;;;;;;;;;;;;32.70;20.43;96072.19;5106117;28;19956;-73
2023/06/18 12:17:29;;;;;;;;;;;;;;;32.59;21.39;96070.50;5106528;28;19962;-73
2023/06/18 12:19:58;;;;;;;;;;;;;;;32.54;21.04;96063.47;5104532;28;19968;-73
2023/06/18 12:22:24;;;;;;;;;;;;;;;32.58;20.57;96058.09;5105248;28;19980;-72
2023/06/18 12:24:50;;;;;;;;;;;;;;;32.45;20.50;96060.25;5087916;28;19954;-73
2023/06/18 12:27:17;;;;;;;;;;;;;;;32.30;21.43;96059.28;5104951;28;19953;-72
2023/06/18 12:29:46;;;;;;;;;;;;;;;32.10;21.54;96066.78;5088040;28;19951;-71
2023/06/18 12:32:12;;;;;;;;;;;;;;;31.85;20.91;96063.69;5104773;28;19977;-71
2023/06/18 12:34:39;;;;;;;;;;;;;;;31.67;21.88;96055.31;5104437;28;19960;-71
2023/06/18 12:37:06;;;;;;;;;;;;;;;31.72;22.65;96058.47;5105917;28;19953;-71
2023/06/18 12:39:32;;;;;;;;;;;;;;;31.88;22.41;96044.75;5104226;28;19950;-71
2023/06/18 12:41:58;;;;;;;;;;;;;;;31.92;20.63;96039.41;5104597;28;19957;-71
2023/06/18 12:44:24;;;;;;;;;;;;;;;31.98;21.11;96034.41;5105824;28;19957;-71
2023/06/18 12:46:52;;;;;;;;;;;;;;;32.04;22.33;96035.69;5105761;28;19958;-72